createdAt,value
2023-03-26T00:02:29.891Z,99357.90
2023-03-26T00:05:02.124Z,99356.58
2023-03-26T00:07:33.987Z,99356.62
2023-03-26T00:10:07.156Z,99359.91
2023-03-26T00:12:39.100Z,99355.81
2023-03-26T00:15:12.724Z,99356.71
2023-03-26T00:17:46.728Z,99350.02
2023-03-26T00:20:19.033Z,99349.59
2023-03-26T00:22:51.552Z,99342.83
2023-03-26T00:25:24.890Z,99343.26
2023-03-26T00:27:57.383Z,99339.63
2023-03-26T00:30:29.873Z,99338.67
2023-03-26T00:33:04.456Z,99333.38
2023-03-26T00:35:38.499Z,99329.95
2023-03-26T00:38:10.959Z,99331.94
2023-03-26T00:40:44.331Z,99331.77
2023-03-26T00:43:19.829Z,99330.72
2023-03-26T00:45:54.467Z,99327.49
2023-03-26T00:48:41.869Z,99324.90
2023-03-26T00:51:18.430Z,99324.25
2023-03-26T00:53:52.190Z,99323.96
2023-03-26T00:56:24.172Z,99323.91
2023-03-26T00:58:57.853Z,99324.64
2023-03-26T01:01:32.685Z,99327.17
2023-03-26T01:04:27.494Z,99328.86
2023-03-26T01:07:02.890Z,99329.55
2023-03-26T01:09:38.222Z,99325.83
2023-03-26T01:12:13.354Z,99326.77
2023-03-26T01:14:45.933Z,99324.77
2023-03-26T01:17:18.507Z,99325.54
2023-03-26T01:19:56.444Z,99323.42
2023-03-26T01:22:29.194Z,99323.40
2023-03-26T01:25:01.257Z,99321.98
2023-03-26T01:27:39.107Z,99321.92
2023-03-26T01:30:18.297Z,99316.63
2023-03-26T01:32:57.855Z,99310.37
2023-03-26T01:35:45.963Z,99304.52
2023-03-26T01:38:24.691Z,99301.60
2023-03-26T01:41:00.465Z,99299.70
2023-03-26T01:43:36.758Z,99295.14
2023-03-26T01:46:11.027Z,99294.27
2023-03-26T01:48:45.245Z,99293.77
2023-03-26T01:51:27.433Z,99291.38
2023-03-26T01:54:00.472Z,99286.01
2023-03-26T01:56:38.102Z,99286.87
2023-03-26T01:59:20.611Z,99284.60
2023-03-26T02:01:58.224Z,99279.46
2023-03-26T02:04:36.558Z,99276.48
2023-03-26T02:07:10.683Z,99277.20
2023-03-26T02:09:46.411Z,99275.30
2023-03-26T02:12:19.027Z,99272.51
2023-03-26T02:14:51.489Z,99270.28
2023-03-26T02:17:24.627Z,99270.52
2023-03-26T02:19:56.978Z,99273.20
2023-03-26T02:22:30.058Z,99270.79
2023-03-26T02:25:02.190Z,99267.25
2023-03-26T02:27:34.212Z,99268.23
2023-03-26T02:30:09.600Z,99261.68
2023-03-26T02:32:43.797Z,99260.69
2023-03-26T02:35:16.811Z,99258.30
2023-03-26T02:37:51.091Z,99260.40
2023-03-26T02:40:22.946Z,99260.81
2023-03-26T02:42:55.338Z,99264.89
2023-03-26T02:45:27.413Z,99261.09
2023-03-26T02:48:01.082Z,99265.75
2023-03-26T02:50:36.912Z,99265.38
2023-03-26T02:53:08.654Z,99266.64
2023-03-26T02:55:40.893Z,99267.40
2023-03-26T02:58:12.783Z,99266.70
2023-03-26T03:00:44.653Z,99263.58
2023-03-26T03:03:17.536Z,99267.08
2023-03-26T03:05:50.211Z,99264.07
2023-03-26T03:08:22.731Z,99267.11
2023-03-26T03:11:02.128Z,99267.12
2023-03-26T03:13:34.185Z,99267.37
2023-03-26T03:16:07.072Z,99271.45
2023-03-26T03:18:39.175Z,99273.77
2023-03-26T03:21:11.127Z,99273.11
2023-03-26T03:23:43.077Z,99274.52
2023-03-26T03:26:18.449Z,99278.52
2023-03-26T03:28:50.832Z,99275.83
2023-03-26T03:31:23.201Z,99278.39
2023-03-26T03:33:55.371Z,99277.44
2023-03-26T03:36:30.572Z,99277.03
2023-03-26T03:39:02.964Z,99278.52
2023-03-26T03:41:35.016Z,99274.11
2023-03-26T03:44:07.092Z,99275.04
2023-03-26T03:46:39.222Z,99272.95
2023-03-26T03:49:11.235Z,99272.74
2023-03-26T03:51:43.376Z,99275.30
2023-03-26T03:54:15.358Z,99276.43
2023-03-26T03:56:47.716Z,99276.90
2023-03-26T03:59:19.861Z,99277.59
2023-03-26T04:01:52.081Z,99283.02
2023-03-26T04:04:24.849Z,99280.41
2023-03-26T04:06:56.994Z,99281.00
2023-03-26T04:09:29.081Z,99274.13
2023-03-26T04:12:01.081Z,99278.01
2023-03-26T04:14:33.242Z,99272.52
2023-03-26T04:17:05.626Z,99273.06
2023-03-26T04:19:38.590Z,99273.55
2023-03-26T04:22:12.132Z,99274.59
2023-03-26T04:24:44.146Z,99272.03
2023-03-26T04:27:19.165Z,99266.84
2023-03-26T04:29:52.452Z,99270.47
2023-03-26T04:32:26.799Z,99268.25
2023-03-26T04:35:00.424Z,99265.77
2023-03-26T04:37:34.646Z,99266.67
2023-03-26T04:40:09.331Z,99263.21
2023-03-26T04:42:46.244Z,99262.95
2023-03-26T04:45:23.119Z,99261.52
2023-03-26T04:47:56.781Z,99261.95
2023-03-26T04:50:29.385Z,99263.19
2023-03-26T04:53:02.565Z,99268.95
2023-03-26T04:55:39.767Z,99271.70
2023-03-26T04:58:14.180Z,99272.30
2023-03-26T05:00:47.634Z,99270.34
2023-03-26T05:03:21.289Z,99271.80
2023-03-26T05:05:53.612Z,99271.63
2023-03-26T05:08:26.892Z,99272.93
2023-03-26T05:10:58.864Z,99269.75
2023-03-26T05:13:31.392Z,99271.35
2023-03-26T05:16:03.280Z,99267.36
2023-03-26T05:18:35.134Z,99266.20
2023-03-26T05:21:08.117Z,99266.71
2023-03-26T05:23:40.195Z,99263.99
2023-03-26T05:26:13.138Z,99259.28
2023-03-26T05:28:45.861Z,99257.19
2023-03-26T05:31:22.363Z,99257.18
2023-03-26T05:33:55.249Z,99252.94
2023-03-26T05:36:28.555Z,99255.15
2023-03-26T05:39:00.688Z,99255.77
2023-03-26T05:41:33.245Z,99257.83
2023-03-26T05:44:05.491Z,99253.38
2023-03-26T05:46:37.569Z,99255.30
2023-03-26T05:49:09.476Z,99249.66
2023-03-26T05:51:41.613Z,99249.33
2023-03-26T05:54:13.942Z,99253.25
2023-03-26T05:56:45.845Z,99255.82
2023-03-26T05:59:18.712Z,99252.29
2023-03-26T06:01:51.439Z,99250.08
2023-03-26T06:04:23.906Z,99250.75
2023-03-26T06:06:57.076Z,99247.84
2023-03-26T06:09:30.010Z,99250.16
2023-03-26T06:12:02.270Z,99248.09
2023-03-26T06:14:34.496Z,99250.15
2023-03-26T06:17:06.733Z,99250.34
2023-03-26T06:19:38.584Z,99256.48
2023-03-26T06:22:12.473Z,99258.97
2023-03-26T06:24:44.810Z,99257.44
2023-03-26T06:27:16.953Z,99261.39
2023-03-26T06:29:49.160Z,99261.56
2023-03-26T06:32:21.262Z,99262.61
2023-03-26T06:34:53.107Z,99266.52
2023-03-26T06:37:25.265Z,99267.95
2023-03-26T06:39:57.194Z,99263.19
2023-03-26T06:42:53.619Z,99263.14
2023-03-26T06:45:21.511Z,99263.12
2023-03-26T06:47:53.560Z,99266.81
2023-03-26T06:50:25.467Z,99263.98
2023-03-26T06:52:57.827Z,99264.73
2023-03-26T06:55:31.435Z,99264.20
2023-03-26T06:58:03.477Z,99271.56
2023-03-26T07:00:35.472Z,99270.27
2023-03-26T07:03:08.581Z,99269.36
2023-03-26T07:05:40.628Z,99269.48
2023-03-26T07:08:12.910Z,99270.84
2023-03-26T07:10:45.042Z,99273.22
2023-03-26T07:13:17.034Z,99260.08
2023-03-26T07:15:50.892Z,99264.39
2023-03-26T07:18:23.172Z,99265.64
2023-03-26T07:20:55.972Z,99263.69
2023-03-26T07:23:29.669Z,99261.24
2023-03-26T07:26:01.958Z,99264.37
2023-03-26T07:28:39.291Z,99263.64
2023-03-26T07:31:20.649Z,99259.95
2023-03-26T07:33:56.953Z,99264.11
2023-03-26T07:36:32.444Z,99255.14
2023-03-26T07:39:16.510Z,99256.84
2023-03-26T07:41:53.939Z,99258.70
2023-03-26T07:44:45.089Z,99249.58
2023-03-26T07:47:26.208Z,99252.50
2023-03-26T07:49:59.445Z,99250.36
2023-03-26T07:52:32.311Z,99253.49
2023-03-26T07:55:05.094Z,99252.75
2023-03-26T07:57:46.943Z,99254.88
2023-03-26T08:00:22.190Z,99247.25
2023-03-26T08:03:16.076Z,99247.33
2023-03-26T08:05:54.439Z,99243.59
2023-03-26T08:08:30.945Z,99246.85
2023-03-26T08:11:13.616Z,99246.09
2023-03-26T08:13:57.738Z,99242.81
2023-03-26T08:16:35.697Z,99246.20
2023-03-26T08:19:14.026Z,99235.42
2023-03-26T08:21:49.430Z,99237.44
2023-03-26T08:24:27.000Z,99238.65
2023-03-26T08:27:02.775Z,99235.00
2023-03-26T08:29:39.254Z,99232.05
2023-03-26T08:32:15.738Z,99228.41
2023-03-26T08:34:48.620Z,99224.98
2023-03-26T08:37:21.416Z,99227.95
2023-03-26T08:39:53.198Z,99227.42
2023-03-26T08:43:06.432Z,99229.77
2023-03-26T08:45:52.204Z,99225.75
2023-03-26T08:48:54.768Z,99228.02
2023-03-26T08:51:53.534Z,99231.02
2023-03-26T08:55:03.743Z,99228.48
2023-03-26T08:57:50.718Z,99226.05
2023-03-26T09:00:54.714Z,99227.95
2023-03-26T09:03:41.621Z,99225.92
2023-03-26T09:06:25.819Z,99220.85
2023-03-26T09:09:32.709Z,99227.41
2023-03-26T09:12:43.766Z,99224.44
2023-03-26T09:15:54.610Z,99218.63
2023-03-26T09:19:01.208Z,99225.45
2023-03-26T09:21:55.655Z,99224.08
2023-03-26T09:24:58.484Z,99217.98
2023-03-26T09:27:39.805Z,99217.34
2023-03-26T09:30:36.442Z,99217.42
2023-03-26T09:33:43.227Z,99217.98
2023-03-26T09:36:35.124Z,99217.78
2023-03-26T09:39:13.726Z,99209.66
2023-03-26T09:41:50.759Z,99208.77
2023-03-26T09:44:54.177Z,99215.73
2023-03-26T09:48:01.322Z,99213.61
2023-03-26T09:50:38.764Z,99212.76
2023-03-26T09:53:29.820Z,99221.37
2023-03-26T09:56:11.930Z,99208.04
2023-03-26T09:58:57.401Z,99208.11
2023-03-26T10:01:35.117Z,99207.45
2023-03-26T10:04:37.662Z,99202.11
2023-03-26T10:07:15.882Z,99200.77
2023-03-26T10:09:56.872Z,99199.88
2023-03-26T10:12:35.093Z,99202.23
2023-03-26T10:15:21.159Z,99196.25
2023-03-26T10:18:27.428Z,99195.32
2023-03-26T10:21:02.941Z,99189.00
2023-03-26T10:23:49.972Z,99184.88
2023-03-26T10:26:37.462Z,99183.73
2023-03-26T10:29:36.121Z,99187.04
2023-03-26T10:32:20.578Z,99186.45
2023-03-26T10:34:57.299Z,99198.90
2023-03-26T10:37:39.986Z,99202.58
2023-03-26T10:40:22.527Z,99193.18
2023-03-26T10:43:22.075Z,99192.31
2023-03-26T10:46:04.032Z,99196.34
2023-03-26T10:48:50.174Z,99187.20
2023-03-26T10:51:45.435Z,99187.16
2023-03-26T10:54:23.269Z,99196.91
2023-03-26T10:56:55.168Z,99220.95
2023-03-26T10:59:28.765Z,99230.60
2023-03-26T11:02:12.192Z,99234.67
2023-03-26T11:04:50.592Z,99208.15
2023-03-26T11:07:28.459Z,99201.34
2023-03-26T11:10:05.181Z,99199.13
2023-03-26T11:12:41.713Z,99197.60
2023-03-26T11:15:23.016Z,99196.36
2023-03-26T11:18:04.879Z,99187.55
2023-03-26T11:20:41.510Z,99188.85
2023-03-26T11:23:39.405Z,99189.33
2023-03-26T11:26:17.431Z,99186.71
2023-03-26T11:29:31.073Z,99184.29
2023-03-26T11:32:03.804Z,99184.59
2023-03-26T11:34:38.760Z,99190.08
2023-03-26T11:37:16.437Z,99192.76
2023-03-26T11:39:52.840Z,99188.96
2023-03-26T11:42:27.466Z,99186.70
2023-03-26T11:45:01.275Z,99183.66
2023-03-26T11:47:35.381Z,99183.23
2023-03-26T11:50:09.255Z,99186.06
2023-03-26T11:52:41.891Z,99184.17
2023-03-26T11:55:15.936Z,99189.02
2023-03-26T11:57:53.704Z,99185.23
2023-03-26T12:00:27.721Z,99181.66
2023-03-26T12:03:01.780Z,99177.92
2023-03-26T12:05:36.870Z,99180.38
2023-03-26T12:08:21.476Z,99180.30
2023-03-26T12:11:05.723Z,99173.39
2023-03-26T12:13:42.043Z,99180.49
2023-03-26T12:16:16.661Z,99179.33
2023-03-26T12:19:00.190Z,99175.13
2023-03-26T12:21:32.916Z,99182.66
2023-03-26T12:24:07.514Z,99181.15
2023-03-26T12:26:43.753Z,99179.34
2023-03-26T12:29:17.238Z,99184.65
2023-03-26T12:31:54.289Z,99184.38
2023-03-26T12:34:35.223Z,99179.56
2023-03-26T12:37:09.131Z,99174.92
2023-03-26T12:40:11.853Z,99163.98
2023-03-26T12:44:46.259Z,99163.19
2023-03-26T12:48:06.744Z,99165.96
2023-03-26T12:50:46.467Z,99156.64
2023-03-26T12:53:50.610Z,99152.97
2023-03-26T12:56:36.469Z,99149.44
2023-03-26T12:59:22.926Z,99149.72
2023-03-26T13:01:59.993Z,99154.44
2023-03-26T13:05:05.490Z,99160.98
2023-03-26T13:07:54.776Z,99169.00
2023-03-26T13:10:39.718Z,99163.36
2023-03-26T13:13:26.160Z,99166.09
2023-03-26T13:16:02.230Z,99172.58
2023-03-26T13:18:43.638Z,99172.13
2023-03-26T13:21:20.988Z,99179.58
2023-03-26T13:23:59.852Z,99177.23
2023-03-26T13:26:42.378Z,99176.16
2023-03-26T13:29:19.016Z,99171.34
2023-03-26T13:31:58.939Z,99171.20
2023-03-26T13:34:38.179Z,99170.45
2023-03-26T13:37:15.193Z,99163.38
2023-03-26T13:39:57.270Z,99162.80
2023-03-26T13:42:38.151Z,99164.67
2023-03-26T13:45:18.470Z,99161.84
2023-03-26T13:47:52.079Z,99161.71
2023-03-26T13:50:28.282Z,99159.36
2023-03-26T13:53:03.409Z,99153.22
2023-03-26T13:55:37.542Z,99156.36
2023-03-26T13:58:16.283Z,99157.41
2023-03-26T14:00:54.857Z,99159.61
2023-03-26T14:03:31.965Z,99163.15
2023-03-26T14:06:07.982Z,99165.68
2023-03-26T14:08:42.431Z,99169.01
2023-03-26T14:11:19.055Z,99168.03
2023-03-26T14:13:53.150Z,99168.16
2023-03-26T14:16:28.384Z,99162.70
2023-03-26T14:19:05.510Z,99164.59
2023-03-26T14:21:55.936Z,99159.64
2023-03-26T14:24:50.323Z,99159.36
2023-03-26T14:27:47.723Z,99156.41
2023-03-26T14:30:49.554Z,99170.04
2023-03-26T14:33:36.102Z,99171.60
2023-03-26T14:36:20.749Z,99174.08
2023-03-26T14:39:25.706Z,99167.27
2023-03-26T14:42:00.475Z,99164.19
2023-03-26T14:45:00.069Z,99163.13
2023-03-26T14:47:33.119Z,99170.17
2023-03-26T14:50:42.725Z,99173.23
2023-03-26T14:53:22.876Z,99173.59
2023-03-26T14:56:28.201Z,99176.27
2023-03-26T14:59:39.474Z,99175.66
2023-03-26T15:02:45.176Z,99170.55
2023-03-26T15:05:59.795Z,99175.59
2023-03-26T15:09:13.897Z,99170.30
2023-03-26T15:11:52.949Z,99166.90
2023-03-26T15:14:58.319Z,99162.02
2023-03-26T15:17:55.174Z,99159.98
2023-03-26T15:21:16.434Z,99172.52
2023-03-26T15:24:26.521Z,99172.64
2023-03-26T15:27:32.248Z,99170.58
2023-03-26T15:30:44.078Z,99174.29
2023-03-26T15:33:48.833Z,99173.37
2023-03-26T15:36:54.440Z,99167.05
2023-03-26T15:39:59.559Z,99175.19
2023-03-26T15:42:38.439Z,99182.05
2023-03-26T15:45:35.404Z,99182.30
2023-03-26T15:48:57.944Z,99187.63
2023-03-26T15:51:47.280Z,99186.79
2023-03-26T15:54:29.878Z,99190.27
2023-03-26T15:57:17.142Z,99189.83
2023-03-26T16:00:12.808Z,99191.56
2023-03-26T16:02:50.642Z,99192.34
2023-03-26T16:05:37.455Z,99205.83
2023-03-26T16:08:17.071Z,99204.92
2023-03-26T16:10:52.531Z,99204.75
2023-03-26T16:13:34.116Z,99207.31
2023-03-26T16:16:27.160Z,99208.30
2023-03-26T16:19:08.444Z,99203.50
2023-03-26T16:21:47.811Z,99204.88
2023-03-26T16:24:28.214Z,99205.45
2023-03-26T16:27:33.761Z,99207.77
2023-03-26T16:30:34.567Z,99213.30
2023-03-26T16:33:16.878Z,99212.08
2023-03-26T16:36:07.559Z,99218.45
2023-03-26T16:39:03.719Z,99213.05
2023-03-26T16:41:38.138Z,99211.34
2023-03-26T16:44:14.266Z,99211.45
2023-03-26T16:46:53.605Z,99212.27
2023-03-26T16:49:42.173Z,99220.88
2023-03-26T16:52:35.812Z,99219.34
2023-03-26T16:55:16.981Z,99218.84
2023-03-26T16:57:57.039Z,99224.66
2023-03-26T17:00:42.392Z,99229.45
2023-03-26T17:03:43.809Z,99230.95
2023-03-26T17:06:31.006Z,99234.73
2023-03-26T17:09:15.420Z,99235.23
2023-03-26T17:11:50.231Z,99241.35
2023-03-26T17:14:32.319Z,99239.10
2023-03-26T17:17:27.472Z,99239.45
2023-03-26T17:20:05.060Z,99241.11
2023-03-26T17:22:43.542Z,99240.98
2023-03-26T17:25:35.382Z,99247.19
2023-03-26T17:28:20.390Z,99250.65
2023-03-26T17:31:03.340Z,99245.27
2023-03-26T17:33:39.522Z,99246.02
2023-03-26T17:36:45.993Z,99251.16
2023-03-26T17:40:09.924Z,99245.79
2023-03-26T17:43:06.315Z,99247.09
2023-03-26T17:45:39.659Z,99246.72
2023-03-26T17:48:18.264Z,99241.49
2023-03-26T17:50:54.165Z,99240.30
2023-03-26T17:53:30.855Z,99241.61
2023-03-26T17:56:04.872Z,99240.73
2023-03-26T17:58:42.770Z,99237.96
2023-03-26T18:01:22.593Z,99235.55
2023-03-26T18:03:57.913Z,99242.05
2023-03-26T18:06:42.260Z,99243.67
2023-03-26T18:09:15.749Z,99244.61
2023-03-26T18:12:00.551Z,99247.04
2023-03-26T18:14:55.944Z,99242.15
2023-03-26T18:17:28.120Z,99240.14
2023-03-26T18:20:07.572Z,99240.14
2023-03-26T18:22:39.409Z,99243.63
2023-03-26T18:25:25.426Z,99247.41
2023-03-26T18:27:59.655Z,99250.89
2023-03-26T18:30:31.724Z,99253.20
2023-03-26T18:33:06.419Z,99254.34
2023-03-26T18:35:45.116Z,99254.33
2023-03-26T18:38:35.659Z,99250.64
2023-03-26T18:41:13.550Z,99253.39
2023-03-26T18:43:45.363Z,99253.13
2023-03-26T18:46:17.966Z,99252.92
2023-03-26T18:48:49.928Z,99255.25
2023-03-26T18:51:23.390Z,99250.71
2023-03-26T18:53:58.129Z,99244.10
2023-03-26T18:56:36.251Z,99237.73
2023-03-26T18:59:28.327Z,99232.61
2023-03-26T19:02:01.521Z,99231.66
2023-03-26T19:04:35.071Z,99227.79
2023-03-26T19:07:10.533Z,99226.52
2023-03-26T19:09:43.350Z,99222.17
2023-03-26T19:12:22.892Z,99220.98
2023-03-26T19:14:57.178Z,99218.64
2023-03-26T19:17:31.578Z,99211.45
2023-03-26T19:20:04.314Z,99211.34
2023-03-26T19:22:36.813Z,99205.06
2023-03-26T19:25:17.234Z,99206.02
2023-03-26T19:27:49.591Z,99205.82
2023-03-26T19:30:29.169Z,99201.61
2023-03-26T19:33:12.306Z,99201.13
2023-03-26T19:35:46.550Z,99199.75
2023-03-26T19:38:25.803Z,99196.98
2023-03-26T19:40:59.057Z,99195.60
2023-03-26T19:43:31.901Z,99195.52
2023-03-26T19:46:03.751Z,99189.54
2023-03-26T19:48:46.150Z,99186.61
2023-03-26T19:51:23.665Z,99185.98
2023-03-26T19:53:58.458Z,99187.10
2023-03-26T19:56:33.851Z,99186.73
2023-03-26T19:59:06.306Z,99186.02
2023-03-26T20:01:38.203Z,99183.80
2023-03-26T20:04:13.755Z,99185.02
2023-03-26T20:06:49.199Z,99184.11
2023-03-26T20:09:21.415Z,99182.08
2023-03-26T20:11:54.353Z,99177.95
2023-03-26T20:14:27.054Z,99170.77
2023-03-26T20:16:58.918Z,99174.92
2023-03-26T20:19:31.386Z,99167.79
2023-03-26T20:22:03.253Z,99170.53
2023-03-26T20:24:35.813Z,99165.41
2023-03-26T20:27:07.723Z,99165.86
2023-03-26T20:29:40.263Z,99170.30
2023-03-26T20:32:24.171Z,99168.60
2023-03-26T20:34:57.904Z,99168.44
2023-03-26T20:37:30.498Z,99167.68
2023-03-26T20:40:06.797Z,99168.87
2023-03-26T20:42:38.631Z,99168.91
2023-03-26T20:45:18.628Z,99162.08
2023-03-26T20:47:51.238Z,99161.18
2023-03-26T20:50:26.413Z,99161.34
2023-03-26T20:52:59.865Z,99159.33
2023-03-26T20:55:31.807Z,99157.78
2023-03-26T20:58:04.604Z,99158.36
2023-03-26T21:00:37.324Z,99163.83
2023-03-26T21:03:10.401Z,99167.96
2023-03-26T21:05:43.538Z,99176.05
2023-03-26T21:08:19.609Z,99174.44
2023-03-26T21:10:52.601Z,99176.83
2023-03-26T21:13:34.044Z,99177.42
2023-03-26T21:16:08.183Z,99171.53
2023-03-26T21:18:43.833Z,99171.48
2023-03-26T21:21:28.203Z,99171.86
2023-03-26T21:24:00.586Z,99172.40
2023-03-26T21:26:41.596Z,99175.98
2023-03-26T21:29:14.253Z,99179.36
2023-03-26T21:31:47.255Z,99182.05
2023-03-26T21:34:20.127Z,99179.65
2023-03-26T21:36:53.199Z,99183.52
2023-03-26T21:39:25.682Z,99181.41
2023-03-26T21:42:05.166Z,99176.79
2023-03-26T21:44:38.492Z,99177.68
2023-03-26T21:47:11.644Z,99173.27
2023-03-26T21:49:44.377Z,99177.67
2023-03-26T21:52:17.190Z,99178.25
2023-03-26T21:54:49.972Z,99177.64
2023-03-26T21:57:42.788Z,99171.94
2023-03-26T22:00:18.627Z,99165.14
2023-03-26T22:03:00.250Z,99159.33
2023-03-26T22:05:41.156Z,99154.85
2023-03-26T22:08:23.196Z,99151.68
2023-03-26T22:10:55.394Z,99147.80
2023-03-26T22:13:27.853Z,99150.91
2023-03-26T22:16:00.221Z,99148.45
2023-03-26T22:18:33.032Z,99151.35
2023-03-26T22:21:06.026Z,99151.15
2023-03-26T22:23:39.218Z,99146.71
2023-03-26T22:26:11.129Z,99151.77
2023-03-26T22:28:43.254Z,99150.16
2023-03-26T22:31:15.129Z,99148.50
2023-03-26T22:33:47.309Z,99149.60
2023-03-26T22:36:22.931Z,99152.76
2023-03-26T22:38:56.936Z,99148.92
2023-03-26T22:41:29.617Z,99151.29
2023-03-26T22:44:16.931Z,99152.70
2023-03-26T22:46:52.487Z,99148.27
2023-03-26T22:49:27.564Z,99151.08
2023-03-26T22:51:59.447Z,99153.20
2023-03-26T22:54:31.981Z,99156.79
2023-03-26T22:57:03.935Z,99155.95
2023-03-26T22:59:36.479Z,99149.77
2023-03-26T23:02:09.873Z,99150.96
2023-03-26T23:04:42.844Z,99151.70
2023-03-26T23:07:14.791Z,99149.23
2023-03-26T23:09:47.168Z,99146.32
2023-03-26T23:12:18.904Z,99142.94
2023-03-26T23:14:53.186Z,99142.55
2023-03-26T23:17:25.096Z,99137.65
2023-03-26T23:19:57.438Z,99137.20
2023-03-26T23:22:29.323Z,99136.98
2023-03-26T23:25:01.314Z,99139.83
2023-03-26T23:27:33.183Z,99137.84
2023-03-26T23:30:05.815Z,99138.17
2023-03-26T23:32:38.072Z,99141.79
2023-03-26T23:35:11.315Z,99143.46
2023-03-26T23:37:43.884Z,99143.70
2023-03-26T23:40:16.831Z,99149.98
2023-03-26T23:42:49.644Z,99154.49
2023-03-26T23:45:22.162Z,99154.04
2023-03-26T23:47:54.030Z,99151.70
2023-03-26T23:50:29.404Z,99155.35
2023-03-26T23:53:01.481Z,99149.84
2023-03-26T23:55:35.558Z,99153.02
2023-03-26T23:58:05.952Z,99155.52
